createdAt,value
2019-02-09T00:02:21.081Z,97746.36
2019-02-09T00:04:50.683Z,97707.77
2019-02-09T00:07:20.314Z,97713.66
2019-02-09T00:09:49.927Z,97707.75
2019-02-09T00:12:19.535Z,97711.73
2019-02-09T00:14:49.120Z,97688.40
2019-02-09T00:17:20.162Z,97685.93
2019-02-09T00:19:49.935Z,97692.55
2019-02-09T00:22:19.509Z,97692.85
2019-02-09T00:24:49.164Z,97681.22
2019-02-09T00:27:18.767Z,97658.23
2019-02-09T00:29:48.400Z,97657.94
2019-02-09T00:32:17.962Z,97644.33
2019-02-09T00:34:47.533Z,97651.50
2019-02-09T00:37:17.079Z,97643.97
2019-02-09T00:39:46.663Z,97654.59
2019-02-09T00:42:16.232Z,97645.16
2019-02-09T00:44:45.787Z,97639.33
2019-02-09T00:47:15.345Z,97632.98
2019-02-09T00:49:45.181Z,97634.19
2019-02-09T00:52:14.740Z,97659.41
2019-02-09T00:54:44.325Z,97659.30
2019-02-09T00:57:14.278Z,97667.02
2019-02-09T00:59:43.840Z,97678.19
2019-02-09T01:02:13.601Z,97663.19
2019-02-09T01:04:43.186Z,97686.89
2019-02-09T01:07:12.807Z,97671.47
2019-02-09T01:09:42.445Z,97680.17
2019-02-09T01:12:12.266Z,97683.64
2019-02-09T01:14:41.849Z,97666.84
2019-02-09T01:17:11.400Z,97673.45
2019-02-09T01:19:41.023Z,97686.94
2019-02-09T01:22:10.749Z,97689.94
2019-02-09T01:24:40.344Z,97690.25
2019-02-09T01:27:10.792Z,97682.48
2019-02-09T01:29:41.869Z,97694.44
2019-02-09T01:32:11.536Z,97694.24
2019-02-09T01:34:42.616Z,97697.33
2019-02-09T01:37:12.236Z,97698.83
2019-02-09T01:39:41.808Z,97702.61
2019-02-09T01:42:11.790Z,97706.94
2019-02-09T01:44:41.330Z,97708.82
2019-02-09T01:47:12.362Z,97706.67
2019-02-09T01:49:42.111Z,97705.48
2019-02-09T01:52:11.776Z,97707.42
2019-02-09T01:54:41.327Z,97712.30
2019-02-09T01:57:11.007Z,97706.17
2019-02-09T01:59:40.596Z,97720.45
2019-02-09T02:02:10.194Z,97717.89
2019-02-09T02:04:39.895Z,97705.58
2019-02-09T02:07:09.526Z,97730.50
2019-02-09T02:09:39.109Z,97726.73
2019-02-09T02:12:09.354Z,97728.03
2019-02-09T02:14:38.919Z,97734.21
2019-02-09T02:17:08.808Z,97744.80
2019-02-09T02:19:38.552Z,97733.43
2019-02-09T02:22:08.477Z,97749.55
2019-02-09T02:24:38.023Z,97730.95
2019-02-09T02:27:07.657Z,97730.73
2019-02-09T02:29:40.844Z,97718.25
2019-02-09T02:32:10.609Z,97700.52
2019-02-09T02:34:40.184Z,97695.84
2019-02-09T02:37:09.929Z,97697.31
2019-02-09T02:39:39.547Z,97684.02
2019-02-09T02:42:09.614Z,97684.23
2019-02-09T02:44:39.160Z,97681.23
2019-02-09T02:47:10.211Z,97686.63
2019-02-09T02:49:39.817Z,97676.75
2019-02-09T02:52:09.387Z,97659.52
2019-02-09T02:54:38.943Z,97655.28
2019-02-09T02:57:08.550Z,97651.15
2019-02-09T02:59:38.123Z,97648.95
2019-02-09T03:02:08.275Z,97641.98
2019-02-09T03:04:37.909Z,97642.25
2019-02-09T03:07:07.621Z,97617.55
2019-02-09T03:09:37.356Z,97641.50
2019-02-09T03:12:06.940Z,97620.94
2019-02-09T03:14:36.522Z,97613.03
2019-02-09T03:17:06.152Z,97620.48
2019-02-09T03:19:35.725Z,97620.89
2019-02-09T03:22:06.039Z,97627.45
2019-02-09T03:24:35.656Z,97618.89
2019-02-09T03:27:05.059Z,97622.03
2019-02-09T03:29:34.655Z,97620.12
2019-02-09T03:32:04.390Z,97623.05
2019-02-09T03:34:34.178Z,97627.16
2019-02-09T03:37:03.932Z,97610.50
2019-02-09T03:39:36.100Z,97642.05
2019-02-09T03:42:06.218Z,97633.35
2019-02-09T03:44:35.789Z,97628.27
2019-02-09T03:47:05.843Z,97624.86
2019-02-09T03:49:54.699Z,97646.22
2019-02-09T03:52:43.701Z,97639.04
2019-02-09T03:55:14.101Z,97616.94
2019-02-09T03:57:43.862Z,97623.47
2019-02-09T04:00:17.833Z,97641.91
2019-02-09T04:02:48.199Z,97630.46
2019-02-09T04:05:18.459Z,97642.79
2019-02-09T04:07:48.385Z,97648.62
2019-02-09T04:10:21.806Z,97646.27
2019-02-09T04:12:51.460Z,97626.61
2019-02-09T04:15:24.545Z,97636.84
2019-02-09T04:17:54.739Z,97643.81
2019-02-09T04:20:26.105Z,97634.86
2019-02-09T04:22:57.424Z,97651.78
2019-02-09T04:25:27.285Z,97650.52
2019-02-09T04:27:56.833Z,97637.67
2019-02-09T04:30:30.571Z,97665.02
2019-02-09T04:33:00.504Z,97663.08
2019-02-09T04:35:30.151Z,97682.76
2019-02-09T04:37:59.881Z,97696.42
2019-02-09T04:40:32.294Z,97699.19
2019-02-09T04:43:03.564Z,97715.30
2019-02-09T04:45:33.141Z,97717.56
2019-02-09T04:48:02.727Z,97737.06
2019-02-09T04:50:32.384Z,97725.02
2019-02-09T04:53:01.973Z,97737.81
2019-02-09T04:55:31.550Z,97738.23
2019-02-09T04:58:01.113Z,97739.55
2019-02-09T05:00:33.286Z,97740.86
2019-02-09T05:03:05.094Z,97754.44
2019-02-09T05:05:34.606Z,97752.91
2019-02-09T05:08:04.410Z,97762.77
2019-02-09T05:10:35.885Z,97765.83
2019-02-09T05:13:05.722Z,97771.59
2019-02-09T05:15:35.296Z,97777.42
2019-02-09T05:18:05.173Z,97767.42
2019-02-09T05:20:34.734Z,97786.16
2019-02-09T05:23:04.462Z,97789.20
2019-02-09T05:25:34.057Z,97789.56
2019-02-09T05:28:03.618Z,97787.81
2019-02-09T05:30:34.764Z,97786.81
2019-02-09T05:33:05.543Z,97803.16
2019-02-09T05:35:35.127Z,97801.70
2019-02-09T05:38:04.713Z,97802.81
2019-02-09T05:40:34.324Z,97807.47
2019-02-09T05:43:04.315Z,97815.08
2019-02-09T05:45:35.444Z,97819.77
2019-02-09T05:48:06.833Z,97823.50
2019-02-09T05:50:36.422Z,97825.38
2019-02-09T05:53:05.980Z,97833.23
2019-02-09T05:55:35.572Z,97832.48
2019-02-09T05:58:05.301Z,97835.23
2019-02-09T06:00:37.089Z,97842.07
2019-02-09T06:03:06.873Z,97835.93
2019-02-09T06:05:39.216Z,97848.85
2019-02-09T06:08:08.916Z,97850.42
2019-02-09T06:10:38.536Z,97851.55
2019-02-09T06:13:08.126Z,97848.65
2019-02-09T06:15:37.698Z,97846.09
2019-02-09T06:18:07.939Z,97845.33
2019-02-09T06:20:37.498Z,97849.34
2019-02-09T06:23:07.169Z,97847.93
2019-02-09T06:25:36.756Z,97856.59
2019-02-09T06:28:06.711Z,97863.61
2019-02-09T06:30:36.329Z,97844.45
2019-02-09T06:33:06.287Z,97858.27
2019-02-09T06:35:37.351Z,97859.63
2019-02-09T06:38:06.945Z,97868.13
2019-02-09T06:40:36.553Z,97871.56
2019-02-09T06:43:06.468Z,97874.45
2019-02-09T06:45:36.015Z,97872.69
2019-02-09T06:48:10.071Z,97877.10
2019-02-09T06:50:39.656Z,97880.66
2019-02-09T06:53:09.224Z,97895.12
2019-02-09T06:55:38.854Z,97883.78
2019-02-09T06:58:09.998Z,97894.46
2019-02-09T07:00:39.580Z,97896.45
2019-02-09T07:03:09.652Z,97894.05
2019-02-09T07:05:39.244Z,97899.77
2019-02-09T07:08:09.313Z,97900.59
2019-02-09T07:10:39.170Z,97900.50
2019-02-09T07:13:09.092Z,97914.36
2019-02-09T07:15:39.480Z,97910.30
2019-02-09T07:18:09.221Z,97917.41
2019-02-09T07:20:38.737Z,97913.73
2019-02-09T07:23:11.287Z,97922.59
2019-02-09T07:25:40.897Z,97930.50
2019-02-09T07:28:10.519Z,97932.20
2019-02-09T07:30:40.298Z,97933.52
2019-02-09T07:33:10.391Z,97925.56
2019-02-09T07:35:39.971Z,97933.43
2019-02-09T07:38:09.626Z,97932.52
2019-02-09T07:40:39.343Z,97939.70
2019-02-09T07:43:08.983Z,97950.63
2019-02-09T07:45:39.045Z,97960.22
2019-02-09T07:48:08.779Z,97963.50
2019-02-09T07:50:38.362Z,97973.13
2019-02-09T07:53:07.929Z,97977.28
2019-02-09T07:55:37.625Z,97984.81
2019-02-09T07:58:07.344Z,97980.77
2019-02-09T08:00:37.531Z,97980.68
2019-02-09T08:03:08.590Z,97973.98
2019-02-09T08:05:38.562Z,97988.45
2019-02-09T08:08:08.381Z,97981.19
2019-02-09T08:10:39.899Z,98016.84
2019-02-09T08:13:15.292Z,98001.09
2019-02-09T08:15:45.045Z,97999.86
2019-02-09T08:18:16.257Z,98005.17
2019-02-09T08:20:45.812Z,97997.12
2019-02-09T08:23:19.671Z,98008.50
2019-02-09T08:25:50.885Z,98017.20
2019-02-09T08:28:23.668Z,98003.70
2019-02-09T08:30:54.892Z,98011.09
2019-02-09T08:33:24.536Z,98012.12
2019-02-09T08:35:56.961Z,98015.47
2019-02-09T08:38:28.052Z,98029.00
2019-02-09T08:40:57.786Z,98032.66
2019-02-09T08:43:27.376Z,98016.06
2019-02-09T08:45:57.407Z,98022.22
2019-02-09T08:48:27.043Z,98022.20
2019-02-09T08:51:07.341Z,98028.86
2019-02-09T08:53:36.887Z,98016.70
2019-02-09T08:56:06.925Z,98024.41
2019-02-09T08:58:36.570Z,98030.06
2019-02-09T09:01:07.059Z,98031.93
2019-02-09T09:03:36.668Z,98020.50
2019-02-09T09:06:06.683Z,98022.88
2019-02-09T09:08:36.265Z,98022.32
2019-02-09T09:11:05.895Z,98021.34
2019-02-09T09:13:35.507Z,98016.53
2019-02-09T09:16:07.790Z,98017.20
2019-02-09T09:18:37.384Z,98034.24
2019-02-09T09:21:09.309Z,98014.61
2019-02-09T09:23:40.466Z,98032.06
2019-02-09T09:26:10.138Z,98030.83
2019-02-09T09:28:40.324Z,98030.16
2019-02-09T09:31:29.182Z,98026.20
2019-02-09T09:33:59.003Z,98024.44
2019-02-09T09:36:28.560Z,98043.63
2019-02-09T09:38:58.149Z,98049.37
2019-02-09T09:41:27.861Z,98050.91
2019-02-09T09:43:57.496Z,98063.53
2019-02-09T09:46:27.108Z,98067.67
2019-02-09T09:48:56.840Z,98059.39
2019-02-09T09:51:26.413Z,98050.31
2019-02-09T09:53:55.980Z,98054.80
2019-02-09T09:56:25.665Z,98073.40
2019-02-09T09:58:55.213Z,98073.73
2019-02-09T10:01:24.789Z,98065.45
2019-02-09T10:03:54.383Z,98070.98
2019-02-09T10:06:43.327Z,97981.67
2019-02-09T10:09:12.924Z,98079.13
2019-02-09T10:11:42.489Z,98068.64
2019-02-09T10:14:13.552Z,98055.81
2019-02-09T10:16:43.181Z,98074.84
2019-02-09T10:19:12.931Z,98071.08
2019-02-09T10:21:42.524Z,98093.27
2019-02-09T10:24:12.107Z,98080.11
2019-02-09T10:26:43.191Z,98079.52
2019-02-09T10:29:12.778Z,98072.17
2019-02-09T10:31:42.364Z,98077.37
2019-02-09T10:34:12.016Z,98086.84
2019-02-09T10:36:41.600Z,98092.19
2019-02-09T10:39:20.157Z,98097.91
2019-02-09T10:41:49.740Z,98106.25
2019-02-09T10:44:19.365Z,98115.25
2019-02-09T10:46:50.446Z,98089.47
2019-02-09T10:49:20.014Z,98076.84
2019-02-09T10:51:49.587Z,98098.96
2019-02-09T10:54:19.275Z,98084.78
2019-02-09T10:56:48.854Z,98098.30
2019-02-09T10:59:18.446Z,98084.11
2019-02-09T11:01:48.550Z,98058.23
2019-02-09T11:04:21.325Z,98081.28
2019-02-09T11:06:51.131Z,98074.66
2019-02-09T11:09:22.352Z,98098.85
2019-02-09T11:11:51.973Z,98078.30
2019-02-09T11:14:21.560Z,98077.02
2019-02-09T11:16:51.618Z,98069.05
2019-02-09T11:19:21.186Z,98062.33
2019-02-09T11:21:56.730Z,98048.89
2019-02-09T11:24:45.610Z,98024.72
2019-02-09T11:27:15.203Z,98063.16
2019-02-09T11:29:44.789Z,98076.88
2019-02-09T11:32:14.842Z,98081.28
2019-02-09T11:34:44.572Z,98091.11
2019-02-09T11:37:14.178Z,98088.05
2019-02-09T11:39:44.060Z,98090.09
2019-02-09T11:42:13.686Z,98085.39
2019-02-09T11:44:43.654Z,98083.23
2019-02-09T11:47:13.310Z,98107.00
2019-02-09T11:49:42.881Z,98115.21
2019-02-09T11:52:12.451Z,98110.34
2019-02-09T11:54:42.060Z,98105.05
2019-02-09T11:57:11.638Z,98118.73
2019-02-09T11:59:41.209Z,98131.55
2019-02-09T12:02:11.034Z,98142.00
2019-02-09T12:04:40.747Z,98129.36
2019-02-09T12:07:10.547Z,98137.47
2019-02-09T12:09:40.188Z,98148.27
2019-02-09T12:12:09.732Z,98146.31
2019-02-09T12:14:39.294Z,98156.66
2019-02-09T12:17:09.040Z,98151.31
2019-02-09T12:19:38.651Z,98150.38
2019-02-09T12:22:08.382Z,98135.28
2019-02-09T12:24:37.976Z,98145.94
2019-02-09T12:27:07.522Z,98134.73
2019-02-09T12:29:37.088Z,98114.06
2019-02-09T12:32:07.031Z,98112.00
2019-02-09T12:34:55.951Z,98112.23
2019-02-09T12:37:25.570Z,98116.05
2019-02-09T12:39:55.145Z,98116.49
2019-02-09T12:42:24.728Z,98121.03
2019-02-09T12:44:54.327Z,98127.47
2019-02-09T12:47:23.913Z,98131.31
2019-02-09T12:49:53.473Z,98116.16
2019-02-09T12:52:23.066Z,98121.45
2019-02-09T12:54:54.127Z,98124.59
2019-02-09T12:57:23.685Z,98131.69
2019-02-09T12:59:53.304Z,98137.23
2019-02-09T13:02:22.872Z,98145.75
2019-02-09T13:04:52.457Z,98130.14
2019-02-09T13:07:22.027Z,98133.70
2019-02-09T13:09:51.588Z,98142.93
2019-02-09T13:12:21.184Z,98152.85
2019-02-09T13:14:50.749Z,98145.81
2019-02-09T13:17:20.330Z,98131.88
2019-02-09T13:19:50.746Z,98132.74
2019-02-09T13:22:20.540Z,98117.45
2019-02-09T13:24:50.096Z,98116.00
2019-02-09T13:27:19.686Z,98113.89
2019-02-09T13:29:50.764Z,98119.71
2019-02-09T13:32:20.360Z,98126.75
2019-02-09T13:35:11.471Z,98122.34
2019-02-09T13:37:41.047Z,98122.24
2019-02-09T13:40:15.071Z,98131.17
2019-02-09T13:42:44.684Z,98130.11
2019-02-09T13:45:18.730Z,98132.17
2019-02-09T13:47:48.295Z,98135.80
2019-02-09T13:50:18.304Z,98145.12
2019-02-09T13:52:50.861Z,98151.77
2019-02-09T13:55:20.660Z,98138.59
2019-02-09T13:57:50.731Z,98132.22
2019-02-09T14:00:23.604Z,98137.29
2019-02-09T14:02:54.674Z,98135.98
2019-02-09T14:05:24.808Z,98143.22
2019-02-09T14:07:55.379Z,98148.81
2019-02-09T14:10:27.665Z,98157.09
2019-02-09T14:12:58.807Z,98158.94
2019-02-09T14:15:32.296Z,98150.41
2019-02-09T14:18:11.370Z,98158.30
2019-02-09T14:20:49.959Z,98157.69
2019-02-09T14:23:19.655Z,98154.47
2019-02-09T14:25:50.740Z,98154.19
2019-02-09T14:28:22.258Z,98158.80
2019-02-09T14:30:51.852Z,98164.09
2019-02-09T14:33:21.480Z,98160.35
2019-02-09T14:35:51.283Z,98170.83
2019-02-09T14:38:20.927Z,98163.84
2019-02-09T14:40:50.666Z,98170.22
2019-02-09T14:43:20.428Z,98162.49
2019-02-09T14:45:50.009Z,98165.44
2019-02-09T14:48:19.640Z,98162.03
2019-02-09T14:50:49.199Z,98159.16
2019-02-09T14:53:18.855Z,98166.38
2019-02-09T14:55:48.473Z,98160.02
2019-02-09T14:58:18.045Z,98160.75
2019-02-09T15:00:51.979Z,98154.36
2019-02-09T15:03:27.291Z,98157.23
2019-02-09T15:05:53.019Z,98148.00
2019-02-09T15:08:22.604Z,98147.22
2019-02-09T15:10:52.197Z,98147.41
2019-02-09T15:13:21.743Z,98143.19
2019-02-09T15:15:55.793Z,98138.28
2019-02-09T15:18:25.362Z,98140.52
2019-02-09T15:20:59.578Z,98151.84
2019-02-09T15:23:30.470Z,98154.66
2019-02-09T15:26:00.103Z,98156.64
2019-02-09T15:28:29.834Z,98157.00
2019-02-09T15:30:59.440Z,98162.92
2019-02-09T15:33:29.017Z,98153.52
2019-02-09T15:35:58.795Z,98139.40
2019-02-09T15:38:28.560Z,98151.97
2019-02-09T15:40:59.628Z,98153.97
2019-02-09T15:43:29.182Z,98162.39
2019-02-09T15:45:58.760Z,98161.02
2019-02-09T15:48:28.335Z,98165.73
2019-02-09T15:50:57.931Z,98171.56
2019-02-09T15:53:27.620Z,98171.83
2019-02-09T15:55:57.184Z,98181.92
2019-02-09T15:58:26.753Z,98182.47
2019-02-09T16:00:57.919Z,98181.88
2019-02-09T16:03:30.448Z,98193.30
2019-02-09T16:06:00.034Z,98191.09
2019-02-09T16:08:29.746Z,98188.05
2019-02-09T16:10:59.497Z,98196.31
2019-02-09T16:13:29.152Z,98184.59
2019-02-09T16:15:58.764Z,98189.09
2019-02-09T16:18:34.262Z,98103.03
2019-02-09T16:21:05.757Z,98190.67
2019-02-09T16:23:35.627Z,98193.51
2019-02-09T16:26:06.194Z,98202.59
2019-02-09T16:28:35.981Z,98206.20
2019-02-09T16:31:06.003Z,98212.05
2019-02-09T16:33:35.589Z,98202.07
2019-02-09T16:36:05.835Z,98209.08
2019-02-09T16:38:35.576Z,98211.54
2019-02-09T16:41:05.345Z,98212.28
2019-02-09T16:43:34.958Z,98214.28
2019-02-09T16:46:06.231Z,98214.37
2019-02-09T16:48:35.960Z,98217.06
2019-02-09T16:51:06.640Z,98213.35
2019-02-09T16:53:36.288Z,98217.45
2019-02-09T16:56:06.200Z,98229.83
2019-02-09T16:58:36.072Z,98228.36
2019-02-09T17:01:06.468Z,98227.66
2019-02-09T17:03:36.048Z,98225.30
2019-02-09T17:06:08.402Z,98233.27
2019-02-09T17:08:38.001Z,98238.44
2019-02-09T17:11:07.799Z,98238.03
2019-02-09T17:13:37.423Z,98237.61
2019-02-09T17:16:07.219Z,98244.05
2019-02-09T17:18:36.767Z,98247.50
2019-02-09T17:21:06.556Z,98248.00
2019-02-09T17:23:36.116Z,98244.05
2019-02-09T17:26:06.307Z,98252.73
2019-02-09T17:28:35.920Z,98266.84
2019-02-09T17:31:05.903Z,98261.20
2019-02-09T17:33:35.498Z,98266.66
2019-02-09T17:36:05.814Z,98265.31
2019-02-09T17:38:36.864Z,98266.08
2019-02-09T17:41:06.664Z,98267.02
2019-02-09T17:43:36.253Z,98268.20
2019-02-09T17:46:10.281Z,98278.91
2019-02-09T17:48:39.836Z,98276.86
2019-02-09T17:51:09.807Z,98274.02
2019-02-09T17:53:39.512Z,98272.58
2019-02-09T17:56:09.208Z,98269.77
2019-02-09T17:58:38.819Z,98273.08
2019-02-09T18:01:10.024Z,98273.22
2019-02-09T18:03:39.608Z,98273.31
2019-02-09T18:06:09.211Z,98272.48
2019-02-09T18:08:38.801Z,98273.80
2019-02-09T18:11:08.554Z,98274.05
2019-02-09T18:13:57.440Z,98275.31
2019-02-09T18:16:27.027Z,98275.48
2019-02-09T18:18:56.605Z,98273.06
2019-02-09T18:21:26.420Z,98269.98
2019-02-09T18:23:56.005Z,98267.06
2019-02-09T18:26:25.604Z,98265.02
2019-02-09T18:28:55.214Z,98271.58
2019-02-09T18:31:24.878Z,98272.73
2019-02-09T18:33:54.480Z,98274.75
2019-02-09T18:36:24.163Z,98280.67
2019-02-09T18:38:53.914Z,98280.02
2019-02-09T18:41:23.477Z,98277.95
2019-02-09T18:43:53.093Z,98281.67
2019-02-09T18:46:22.656Z,98281.48
2019-02-09T18:48:53.725Z,98279.28
2019-02-09T18:51:23.345Z,98281.64
2019-02-09T18:53:52.934Z,98281.33
2019-02-09T18:56:22.522Z,98282.83
2019-02-09T18:58:52.127Z,98275.91
2019-02-09T19:01:21.691Z,98274.83
2019-02-09T19:04:01.730Z,98270.72
2019-02-09T19:06:31.312Z,98265.16
2019-02-09T19:09:00.909Z,98264.38
2019-02-09T19:11:30.515Z,98254.34
2019-02-09T19:14:00.070Z,98260.98
2019-02-09T19:16:29.662Z,98251.05
2019-02-09T19:18:59.276Z,98247.59
2019-02-09T19:21:29.000Z,98254.11
2019-02-09T19:23:58.552Z,98250.47
2019-02-09T19:26:28.499Z,98247.45
2019-02-09T19:28:58.085Z,98247.62
2019-02-09T19:31:27.653Z,98251.39
2019-02-09T19:33:57.549Z,98246.86
2019-02-09T19:36:28.191Z,98249.22
2019-02-09T19:38:57.790Z,98244.06
2019-02-09T19:41:27.392Z,98250.92
2019-02-09T19:43:56.967Z,98260.70
2019-02-09T19:46:45.861Z,98250.77
2019-02-09T19:49:15.423Z,98243.13
2019-02-09T19:51:45.014Z,98238.69
2019-02-09T19:54:14.586Z,98246.91
2019-02-09T19:56:44.230Z,98248.84
2019-02-09T19:59:13.833Z,98247.02
2019-02-09T20:01:45.144Z,98241.46
2019-02-09T20:04:33.985Z,98238.95
2019-02-09T20:07:03.588Z,98235.48
2019-02-09T20:09:33.213Z,98233.70
2019-02-09T20:12:04.427Z,98239.62
2019-02-09T20:14:36.878Z,98245.01
2019-02-09T20:17:06.508Z,98237.87
2019-02-09T20:19:36.074Z,98233.83
2019-02-09T20:22:06.473Z,98231.96
2019-02-09T20:24:55.313Z,98228.02
2019-02-09T20:27:25.009Z,98239.67
2019-02-09T20:30:18.409Z,98237.94
2019-02-09T20:32:48.025Z,98242.88
2019-02-09T20:35:27.359Z,98246.02
2019-02-09T20:37:53.860Z,98252.03
2019-02-09T20:40:27.974Z,98255.92
2019-02-09T20:43:01.974Z,98253.75
2019-02-09T20:45:29.101Z,98241.91
2019-02-09T20:47:58.685Z,98240.00
2019-02-09T20:50:28.582Z,98236.16
2019-02-09T20:52:58.202Z,98225.00
2019-02-09T20:55:27.807Z,98228.13
2019-02-09T20:57:57.355Z,98232.71
2019-02-09T21:00:30.085Z,98227.18
2019-02-09T21:02:59.796Z,98227.75
2019-02-09T21:05:35.966Z,98223.55
2019-02-09T21:08:01.261Z,98216.41
2019-02-09T21:10:35.066Z,98211.08
2019-02-09T21:13:05.701Z,98205.73
2019-02-09T21:15:35.593Z,98203.87
2019-02-09T21:18:06.921Z,98207.25
2019-02-09T21:20:36.535Z,98206.62
2019-02-09T21:23:09.822Z,98197.31
2019-02-09T21:25:43.090Z,98198.17
2019-02-09T21:28:13.012Z,98193.94
2019-02-09T21:30:42.760Z,98192.53
2019-02-09T21:33:12.502Z,98196.37
2019-02-09T21:35:44.157Z,98189.70
2019-02-09T21:38:15.304Z,98185.27
2019-02-09T21:40:44.963Z,98181.89
2019-02-09T21:43:14.583Z,98186.41
2019-02-09T21:45:45.621Z,98179.50
2019-02-09T21:48:15.364Z,98181.94
2019-02-09T21:50:44.944Z,98178.41
2019-02-09T21:53:16.075Z,98177.34
2019-02-09T21:55:45.696Z,98182.38
2019-02-09T21:58:15.424Z,98183.13
2019-02-09T22:00:46.449Z,98187.19
2019-02-09T22:03:16.052Z,98178.53
2019-02-09T22:05:51.778Z,98169.22
2019-02-09T22:08:19.917Z,98176.19
2019-02-09T22:10:49.717Z,98165.05
2019-02-09T22:13:19.375Z,98170.33
2019-02-09T22:15:48.966Z,98172.04
2019-02-09T22:18:18.539Z,98161.36
2019-02-09T22:20:52.921Z,98162.74
2019-02-09T22:23:19.462Z,98163.93
2019-02-09T22:25:49.083Z,98165.11
2019-02-09T22:28:18.653Z,98160.41
2019-02-09T22:30:48.318Z,98155.95
2019-02-09T22:33:24.637Z,98152.16
2019-02-09T22:35:49.939Z,98140.27
2019-02-09T22:38:20.061Z,98145.67
2019-02-09T22:40:49.664Z,98138.92
2019-02-09T22:43:19.253Z,98141.72
2019-02-09T22:46:08.135Z,98140.34
2019-02-09T22:48:38.268Z,98143.64
2019-02-09T22:51:07.863Z,98151.55
2019-02-09T22:53:37.447Z,98137.20
2019-02-09T22:56:07.302Z,98132.86
2019-02-09T22:58:36.885Z,98130.50
2019-02-09T23:01:11.349Z,98123.38
2019-02-09T23:03:45.399Z,98116.39
2019-02-09T23:06:19.809Z,98109.13
2019-02-09T23:08:53.342Z,98110.47
2019-02-09T23:11:22.928Z,98105.63
2019-02-09T23:13:52.542Z,98098.21
2019-02-09T23:16:22.204Z,98090.61
2019-02-09T23:18:51.784Z,98088.78
2019-02-09T23:21:21.391Z,98081.44
2019-02-09T23:23:51.001Z,98082.20
2019-02-09T23:26:20.610Z,98076.22
2019-02-09T23:28:50.196Z,98084.11
2019-02-09T23:31:19.759Z,98074.23
2019-02-09T23:33:49.391Z,98076.09
2019-02-09T23:36:18.964Z,98069.89
2019-02-09T23:38:48.738Z,98068.56
2019-02-09T23:41:18.322Z,98066.98
2019-02-09T23:44:07.387Z,98059.16
2019-02-09T23:46:36.953Z,98063.96
2019-02-09T23:49:06.615Z,98051.31
2019-02-09T23:51:36.240Z,98053.58
2019-02-09T23:54:05.799Z,98041.99
2019-02-09T23:56:35.385Z,98041.70
2019-02-09T23:59:04.990Z,98044.19
